sensor_id;sensor_type;location;lat;lon;timestamp;pressure;altitude;pressure_sealevel;temperature;humidity
5703;BME280;2876;51.738;10.050;2023-11-18T00:02:24;100025.31;;;4.67;99.60
5703;BME280;2876;51.738;10.050;2023-11-18T00:08:29;100031.66;;;4.46;99.39
5703;BME280;2876;51.738;10.050;2023-11-18T00:14:32;100026.09;;;4.30;99.20
5703;BME280;2876;51.738;10.050;2023-11-18T00:20:34;100041.22;;;4.10;100.00
5703;BME280;2876;51.738;10.050;2023-11-18T00:26:37;100051.38;;;3.86;100.00
5703;BME280;2876;51.738;10.050;2023-11-18T00:32:39;100048.03;;;4.13;100.00
5703;BME280;2876;51.738;10.050;2023-11-18T00:38:42;100052.22;;;4.35;100.00
5703;BME280;2876;51.738;10.050;2023-11-18T00:44:44;100064.19;;;4.58;100.00
5703;BME280;2876;51.738;10.050;2023-11-18T00:50:46;100064.88;;;4.79;100.00
5703;BME280;2876;51.738;10.050;2023-11-18T00:56:48;100065.38;;;4.93;100.00
5703;BME280;2876;51.738;10.050;2023-11-18T01:02:50;100070.50;;;5.14;100.00
5703;BME280;2876;51.738;10.050;2023-11-18T01:08:52;100078.66;;;5.30;100.00
5703;BME280;2876;51.738;10.050;2023-11-18T01:14:55;100068.56;;;5.33;100.00
5703;BME280;2876;51.738;10.050;2023-11-18T01:20:56;100076.41;;;5.35;100.00
5703;BME280;2876;51.738;10.050;2023-11-18T01:27:01;100069.19;;;5.27;100.00
5703;BME280;2876;51.738;10.050;2023-11-18T01:33:03;100087.47;;;5.30;100.00
5703;BME280;2876;51.738;10.050;2023-11-18T01:39:06;100084.81;;;5.30;100.00
5703;BME280;2876;51.738;10.050;2023-11-18T01:45:09;100090.44;;;5.27;100.00
5703;BME280;2876;51.738;10.050;2023-11-18T01:51:13;100094.06;;;5.36;100.00
5703;BME280;2876;51.738;10.050;2023-11-18T01:57:16;100102.06;;;5.54;100.00
5703;BME280;2876;51.738;10.050;2023-11-18T02:03:18;100110.09;;;5.44;100.00
5703;BME280;2876;51.738;10.050;2023-11-18T02:09:23;100107.94;;;5.57;100.00
5703;BME280;2876;51.738;10.050;2023-11-18T02:15:34;100099.38;;;5.64;100.00
5703;BME280;2876;51.738;10.050;2023-11-18T02:21:37;100094.06;;;5.54;100.00
5703;BME280;2876;51.738;10.050;2023-11-18T02:27:39;100107.69;;;5.51;100.00
5703;BME280;2876;51.738;10.050;2023-11-18T02:33:59;100109.75;;;5.57;99.54
5703;BME280;2876;51.738;10.050;2023-11-18T02:40:07;100115.69;;;5.51;99.76
5703;BME280;2876;51.738;10.050;2023-11-18T02:46:16;100114.78;;;5.60;99.25
5703;BME280;2876;51.738;10.050;2023-11-18T02:52:18;100115.97;;;5.48;99.96
5703;BME280;2876;51.738;10.050;2023-11-18T02:58:21;100116.66;;;5.50;99.51
5703;BME280;2876;51.738;10.050;2023-11-18T03:04:23;100106.16;;;5.48;100.00
5703;BME280;2876;51.738;10.050;2023-11-18T03:10:25;100100.72;;;5.50;99.86
5703;BME280;2876;51.738;10.050;2023-11-18T03:16:28;100099.38;;;5.36;99.75
5703;BME280;2876;51.738;10.050;2023-11-18T03:22:30;100100.25;;;5.17;99.78
5703;BME280;2876;51.738;10.050;2023-11-18T03:28:33;100096.81;;;5.07;99.78
5703;BME280;2876;51.738;10.050;2023-11-18T03:34:36;100111.53;;;5.01;100.00
5703;BME280;2876;51.738;10.050;2023-11-18T03:40:38;100102.59;;;4.93;100.00
5703;BME280;2876;51.738;10.050;2023-11-18T03:46:40;100108.16;;;4.99;100.00
5703;BME280;2876;51.738;10.050;2023-11-18T03:52:42;100107.78;;;4.84;100.00
5703;BME280;2876;51.738;10.050;2023-11-18T03:58:45;100109.47;;;4.76;100.00
5703;BME280;2876;51.738;10.050;2023-11-18T04:04:49;100107.66;;;4.76;100.00
5703;BME280;2876;51.738;10.050;2023-11-18T04:10:51;100108.38;;;4.69;100.00
5703;BME280;2876;51.738;10.050;2023-11-18T04:16:53;100097.75;;;4.69;100.00
5703;BME280;2876;51.738;10.050;2023-11-18T04:22:56;100096.38;;;4.55;100.00
5703;BME280;2876;51.738;10.050;2023-11-18T04:28:58;100097.38;;;4.25;100.00
5703;BME280;2876;51.738;10.050;2023-11-18T04:35:01;100100.16;;;4.04;100.00
5703;BME280;2876;51.738;10.050;2023-11-18T04:41:11;100081.97;;;3.90;100.00
5703;BME280;2876;51.738;10.050;2023-11-18T04:47:13;100077.47;;;3.61;100.00
5703;BME280;2876;51.738;10.050;2023-11-18T04:53:15;100081.81;;;3.22;100.00
5703;BME280;2876;51.738;10.050;2023-11-18T04:59:17;100083.44;;;3.13;100.00
5703;BME280;2876;51.738;10.050;2023-11-18T05:05:20;100084.28;;;2.83;100.00
5703;BME280;2876;51.738;10.050;2023-11-18T05:11:23;100080.72;;;2.94;100.00
5703;BME280;2876;51.738;10.050;2023-11-18T05:17:26;100069.69;;;2.68;100.00
5703;BME280;2876;51.738;10.050;2023-11-18T05:23:28;100079.72;;;2.64;100.00
5703;BME280;2876;51.738;10.050;2023-11-18T05:29:33;100062.81;;;2.56;100.00
5703;BME280;2876;51.738;10.050;2023-11-18T05:35:36;100053.81;;;2.68;100.00
5703;BME280;2876;51.738;10.050;2023-11-18T05:41:38;100059.63;;;2.62;100.00
5703;BME280;2876;51.738;10.050;2023-11-18T05:47:42;100063.19;;;2.51;100.00
5703;BME280;2876;51.738;10.050;2023-11-18T05:53:44;100067.31;;;2.44;100.00
5703;BME280;2876;51.738;10.050;2023-11-18T05:59:48;100054.41;;;2.29;100.00
5703;BME280;2876;51.738;10.050;2023-11-18T06:05:50;100047.16;;;2.32;100.00
5703;BME280;2876;51.738;10.050;2023-11-18T06:11:52;100046.97;;;2.44;100.00
5703;BME280;2876;51.738;10.050;2023-11-18T06:17:55;100054.97;;;2.54;100.00
5703;BME280;2876;51.738;10.050;2023-11-18T06:23:59;100056.66;;;2.76;100.00
5703;BME280;2876;51.738;10.050;2023-11-18T06:30:01;100057.28;;;2.89;100.00
5703;BME280;2876;51.738;10.050;2023-11-18T06:36:05;100060.38;;;3.04;100.00
5703;BME280;2876;51.738;10.050;2023-11-18T06:42:09;100075.63;;;3.12;100.00
5703;BME280;2876;51.738;10.050;2023-11-18T06:48:13;100080.53;;;3.16;100.00
5703;BME280;2876;51.738;10.050;2023-11-18T06:54:16;100086.56;;;3.18;100.00
5703;BME280;2876;51.738;10.050;2023-11-18T07:00:19;100098.84;;;3.19;100.00
5703;BME280;2876;51.738;10.050;2023-11-18T07:06:23;100101.59;;;3.18;100.00
5703;BME280;2876;51.738;10.050;2023-11-18T07:12:28;100105.31;;;3.05;100.00
5703;BME280;2876;51.738;10.050;2023-11-18T07:18:30;100106.84;;;3.08;100.00
5703;BME280;2876;51.738;10.050;2023-11-18T07:24:36;100122.31;;;3.34;100.00
5703;BME280;2876;51.738;10.050;2023-11-18T07:30:39;100116.69;;;3.58;100.00
5703;BME280;2876;51.738;10.050;2023-11-18T07:36:40;100110.06;;;4.02;100.00
5703;BME280;2876;51.738;10.050;2023-11-18T07:42:43;100108.97;;;4.14;100.00
5703;BME280;2876;51.738;10.050;2023-11-18T07:48:45;100106.03;;;4.56;100.00
5703;BME280;2876;51.738;10.050;2023-11-18T07:54:47;100114.25;;;4.63;100.00
5703;BME280;2876;51.738;10.050;2023-11-18T08:00:54;100103.75;;;4.71;100.00
5703;BME280;2876;51.738;10.050;2023-11-18T08:06:56;100113.56;;;4.61;100.00
5703;BME280;2876;51.738;10.050;2023-11-18T08:12:59;100134.91;;;4.88;100.00
5703;BME280;2876;51.738;10.050;2023-11-18T08:19:02;100129.69;;;5.06;100.00
5703;BME280;2876;51.738;10.050;2023-11-18T08:25:05;100123.13;;;5.10;99.92
5703;BME280;2876;51.738;10.050;2023-11-18T08:31:10;100111.22;;;5.14;98.97
5703;BME280;2876;51.738;10.050;2023-11-18T08:37:17;100109.19;;;5.26;97.86
5703;BME280;2876;51.738;10.050;2023-11-18T08:43:19;100106.38;;;5.37;96.40
5703;BME280;2876;51.738;10.050;2023-11-18T08:49:23;100104.69;;;5.36;97.78
5703;BME280;2876;51.738;10.050;2023-11-18T08:55:28;100106.91;;;5.68;96.81
5703;BME280;2876;51.738;10.050;2023-11-18T09:01:49;100109.63;;;6.04;94.93
5703;BME280;2876;51.738;10.050;2023-11-18T09:07:51;100107.44;;;6.35;92.82
5703;BME280;2876;51.738;10.050;2023-11-18T09:13:55;100101.34;;;6.43;92.02
5703;BME280;2876;51.738;10.050;2023-11-18T09:20:03;100108.13;;;6.55;91.72
5703;BME280;2876;51.738;10.050;2023-11-18T09:26:08;100101.34;;;6.86;90.47
5703;BME280;2876;51.738;10.050;2023-11-18T09:32:10;100110.91;;;6.97;89.35
5703;BME280;2876;51.738;10.050;2023-11-18T09:38:14;100096.19;;;7.45;87.39
5703;BME280;2876;51.738;10.050;2023-11-18T09:44:16;100089.16;;;7.44;86.84
5703;BME280;2876;51.738;10.050;2023-11-18T09:50:25;100089.53;;;7.57;85.52
5703;BME280;2876;51.738;10.050;2023-11-18T09:56:51;100077.13;;;7.99;81.88
5703;BME280;2876;51.738;10.050;2023-11-18T10:02:59;100083.81;;;7.86;83.94
5703;BME280;2876;51.738;10.050;2023-11-18T10:09:07;100078.34;;;8.04;82.40
5703;BME280;2876;51.738;10.050;2023-11-18T10:15:21;100067.84;;;8.27;81.23
5703;BME280;2876;51.738;10.050;2023-11-18T10:21:35;100068.16;;;8.16;80.17
5703;BME280;2876;51.738;10.050;2023-11-18T10:27:45;100047.44;;;8.02;80.95
5703;BME280;2876;51.738;10.050;2023-11-18T10:33:49;100039.25;;;8.03;80.63
5703;BME280;2876;51.738;10.050;2023-11-18T10:39:51;100028.44;;;8.46;79.31
5703;BME280;2876;51.738;10.050;2023-11-18T10:46:11;100016.72;;;8.55;78.45
5703;BME280;2876;51.738;10.050;2023-11-18T10:52:15;100009.97;;;8.83;77.92
5703;BME280;2876;51.738;10.050;2023-11-18T10:58:19;100008.75;;;9.02;77.33
5703;BME280;2876;51.738;10.050;2023-11-18T11:04:21;100004.81;;;8.82;77.62
5703;BME280;2876;51.738;10.050;2023-11-18T11:10:23;100017.06;;;9.15;76.83
5703;BME280;2876;51.738;10.050;2023-11-18T11:16:40;100003.09;;;8.89;77.41
5703;BME280;2876;51.738;10.050;2023-11-18T11:23:26;99968.50;;;8.96;76.05
5703;BME280;2876;51.738;10.050;2023-11-18T11:29:41;99961.00;;;8.83;77.07
5703;BME280;2876;51.738;10.050;2023-11-18T11:35:49;99963.88;;;8.73;77.69
5703;BME280;2876;51.738;10.050;2023-11-18T11:41:54;99950.38;;;9.06;77.00
5703;BME280;2876;51.738;10.050;2023-11-18T11:48:00;99945.78;;;8.83;77.23
5703;BME280;2876;51.738;10.050;2023-11-18T11:54:23;99945.56;;;8.93;76.89
5703;BME280;2876;51.738;10.050;2023-11-18T12:00:30;99926.38;;;9.21;77.27
5703;BME280;2876;51.738;10.050;2023-11-18T12:06:47;99901.13;;;9.46;76.00
5703;BME280;2876;51.738;10.050;2023-11-18T12:12:49;99872.84;;;9.66;76.10
5703;BME280;2876;51.738;10.050;2023-11-18T12:19:32;99868.56;;;9.34;76.52
5703;BME280;2876;51.738;10.050;2023-11-18T12:25:38;99895.56;;;9.25;77.44
5703;BME280;2876;51.738;10.050;2023-11-18T12:31:40;99890.47;;;9.38;77.29
5703;BME280;2876;51.738;10.050;2023-11-18T12:44:36;99882.72;;;9.20;78.82
5703;BME280;2876;51.738;10.050;2023-11-18T12:50:41;99885.41;;;9.20;78.56
5703;BME280;2876;51.738;10.050;2023-11-18T12:56:45;99866.94;;;9.02;79.54
5703;BME280;2876;51.738;10.050;2023-11-18T13:02:50;99878.69;;;8.93;80.15
5703;BME280;2876;51.738;10.050;2023-11-18T13:08:54;99876.78;;;9.10;79.90
5703;BME280;2876;51.738;10.050;2023-11-18T13:14:56;99863.16;;;8.57;80.96
5703;BME280;2876;51.738;10.050;2023-11-18T13:20:58;99847.31;;;8.48;82.54
5703;BME280;2876;51.738;10.050;2023-11-18T13:27:02;99847.63;;;8.53;82.39
5703;BME280;2876;51.738;10.050;2023-11-18T13:33:06;99841.22;;;8.23;83.01
5703;BME280;2876;51.738;10.050;2023-11-18T13:39:17;99826.66;;;8.17;83.40
5703;BME280;2876;51.738;10.050;2023-11-18T13:45:19;99808.38;;;7.89;84.57
5703;BME280;2876;51.738;10.050;2023-11-18T13:51:36;99805.50;;;8.07;84.94
5703;BME280;2876;51.738;10.050;2023-11-18T13:57:39;99788.53;;;7.92;85.47
5703;BME280;2876;51.738;10.050;2023-11-18T14:03:41;99784.41;;;7.65;86.96
5703;BME280;2876;51.738;10.050;2023-11-18T14:09:45;99766.94;;;7.46;87.39
5703;BME280;2876;51.738;10.050;2023-11-18T14:15:48;99749.88;;;7.63;86.90
5703;BME280;2876;51.738;10.050;2023-11-18T14:21:56;99763.09;;;7.24;88.01
5703;BME280;2876;51.738;10.050;2023-11-18T14:27:59;99753.44;;;7.07;88.16
5703;BME280;2876;51.738;10.050;2023-11-18T14:34:01;99728.59;;;7.06;88.77
5703;BME280;2876;51.738;10.050;2023-11-18T14:40:04;99727.75;;;6.98;88.96
5703;BME280;2876;51.738;10.050;2023-11-18T14:46:10;99729.09;;;6.94;89.11
5703;BME280;2876;51.738;10.050;2023-11-18T14:52:12;99715.59;;;7.11;88.75
5703;BME280;2876;51.738;10.050;2023-11-18T14:58:14;99725.09;;;6.73;90.38
5703;BME280;2876;51.738;10.050;2023-11-18T15:04:16;99708.41;;;6.71;90.95
5703;BME280;2876;51.738;10.050;2023-11-18T15:10:23;99708.59;;;6.86;90.51
5703;BME280;2876;51.738;10.050;2023-11-18T15:16:25;99707.91;;;6.59;91.30
5703;BME280;2876;51.738;10.050;2023-11-18T15:22:27;99707.91;;;6.59;92.19
5703;BME280;2876;51.738;10.050;2023-11-18T15:28:29;99700.59;;;6.70;92.81
5703;BME280;2876;51.738;10.050;2023-11-18T15:34:33;99709.56;;;6.60;93.49
5703;BME280;2876;51.738;10.050;2023-11-18T15:40:38;99699.41;;;6.56;93.74
5703;BME280;2876;51.738;10.050;2023-11-18T15:46:40;99686.59;;;6.51;95.12
5703;BME280;2876;51.738;10.050;2023-11-18T15:52:49;99669.56;;;6.44;95.33
5703;BME280;2876;51.738;10.050;2023-11-18T15:58:51;99676.09;;;6.58;95.62
5703;BME280;2876;51.738;10.050;2023-11-18T16:04:53;99663.59;;;6.58;96.78
5703;BME280;2876;51.738;10.050;2023-11-18T16:10:57;99650.13;;;6.60;97.49
5703;BME280;2876;51.738;10.050;2023-11-18T16:16:59;99653.59;;;6.28;98.61
5703;BME280;2876;51.738;10.050;2023-11-18T16:23:01;99637.59;;;6.20;99.10
5703;BME280;2876;51.738;10.050;2023-11-18T16:29:07;99617.28;;;6.35;98.42
5703;BME280;2876;51.738;10.050;2023-11-18T16:35:09;99638.94;;;6.32;99.01
5703;BME280;2876;51.738;10.050;2023-11-18T16:41:14;99600.97;;;6.22;99.85
5703;BME280;2876;51.738;10.050;2023-11-18T16:47:16;99593.31;;;6.35;99.78
5703;BME280;2876;51.738;10.050;2023-11-18T16:53:18;99598.97;;;6.40;100.00
5703;BME280;2876;51.738;10.050;2023-11-18T16:59:20;99589.47;;;6.13;100.00
5703;BME280;2876;51.738;10.050;2023-11-18T17:05:23;99552.53;;;6.18;100.00
5703;BME280;2876;51.738;10.050;2023-11-18T17:11:25;99526.06;;;6.17;100.00
5703;BME280;2876;51.738;10.050;2023-11-18T17:17:27;99535.38;;;6.29;100.00
5703;BME280;2876;51.738;10.050;2023-11-18T17:23:29;99526.22;;;6.07;100.00
5703;BME280;2876;51.738;10.050;2023-11-18T17:29:33;99509.56;;;6.13;100.00
5703;BME280;2876;51.738;10.050;2023-11-18T17:35:35;99501.94;;;6.10;100.00
5703;BME280;2876;51.738;10.050;2023-11-18T17:41:37;99493.44;;;5.98;100.00
5703;BME280;2876;51.738;10.050;2023-11-18T17:47:40;99482.13;;;6.21;100.00
5703;BME280;2876;51.738;10.050;2023-11-18T17:53:45;99461.19;;;6.18;100.00
5703;BME280;2876;51.738;10.050;2023-11-18T17:59:49;99457.19;;;6.05;100.00
5703;BME280;2876;51.738;10.050;2023-11-18T18:05:54;99416.41;;;5.97;100.00
5703;BME280;2876;51.738;10.050;2023-11-18T18:11:56;99409.72;;;6.25;100.00
5703;BME280;2876;51.738;10.050;2023-11-18T18:17:58;99402.94;;;5.98;100.00
5703;BME280;2876;51.738;10.050;2023-11-18T18:24:03;99387.97;;;6.05;100.00
5703;BME280;2876;51.738;10.050;2023-11-18T18:30:05;99376.81;;;5.94;100.00
5703;BME280;2876;51.738;10.050;2023-11-18T18:36:09;99353.66;;;6.10;100.00
5703;BME280;2876;51.738;10.050;2023-11-18T18:42:12;99340.38;;;6.02;100.00
5703;BME280;2876;51.738;10.050;2023-11-18T18:48:14;99320.44;;;5.82;100.00
5703;BME280;2876;51.738;10.050;2023-11-18T18:54:16;99333.41;;;6.01;100.00
5703;BME280;2876;51.738;10.050;2023-11-18T19:00:19;99332.22;;;5.88;100.00
5703;BME280;2876;51.738;10.050;2023-11-18T19:06:21;99304.31;;;5.92;100.00
5703;BME280;2876;51.738;10.050;2023-11-18T19:12:23;99282.16;;;5.91;100.00
5703;BME280;2876;51.738;10.050;2023-11-18T19:18:25;99251.66;;;6.18;100.00
5703;BME280;2876;51.738;10.050;2023-11-18T19:24:27;99268.19;;;5.97;100.00
5703;BME280;2876;51.738;10.050;2023-11-18T19:30:29;99244.22;;;5.89;100.00
5703;BME280;2876;51.738;10.050;2023-11-18T19:36:32;99240.25;;;5.85;100.00
5703;BME280;2876;51.738;10.050;2023-11-18T19:42:35;99236.09;;;5.82;100.00
5703;BME280;2876;51.738;10.050;2023-11-18T19:48:37;99197.09;;;6.06;100.00
5703;BME280;2876;51.738;10.050;2023-11-18T19:54:40;99188.22;;;5.74;100.00
5703;BME280;2876;51.738;10.050;2023-11-18T20:00:42;99173.09;;;5.75;100.00
5703;BME280;2876;51.738;10.050;2023-11-18T20:06:45;99175.25;;;5.71;100.00
5703;BME280;2876;51.738;10.050;2023-11-18T20:12:47;99173.09;;;5.75;100.00
5703;BME280;2876;51.738;10.050;2023-11-18T20:18:49;99145.97;;;5.79;100.00
5703;BME280;2876;51.738;10.050;2023-11-18T20:24:51;99157.63;;;5.78;100.00
5703;BME280;2876;51.738;10.050;2023-11-18T20:30:53;99166.41;;;5.87;100.00
5703;BME280;2876;51.738;10.050;2023-11-18T20:36:55;99166.94;;;5.74;100.00
5703;BME280;2876;51.738;10.050;2023-11-18T20:42:57;99156.09;;;5.84;100.00
5703;BME280;2876;51.738;10.050;2023-11-18T20:49:00;99132.69;;;5.71;100.00
5703;BME280;2876;51.738;10.050;2023-11-18T20:55:02;99111.06;;;5.74;100.00
5703;BME280;2876;51.738;10.050;2023-11-18T21:01:04;99098.81;;;5.65;100.00
5703;BME280;2876;51.738;10.050;2023-11-18T21:07:12;99096.19;;;5.96;100.00
5703;BME280;2876;51.738;10.050;2023-11-18T21:13:13;99084.72;;;5.88;100.00
5703;BME280;2876;51.738;10.050;2023-11-18T21:19:15;99064.81;;;5.75;100.00
5703;BME280;2876;51.738;10.050;2023-11-18T21:25:19;99056.47;;;5.87;100.00
5703;BME280;2876;51.738;10.050;2023-11-18T21:31:21;99036.81;;;5.88;100.00
5703;BME280;2876;51.738;10.050;2023-11-18T21:37:23;99024.97;;;5.67;100.00
5703;BME280;2876;51.738;10.050;2023-11-18T21:43:25;99000.69;;;5.70;100.00
5703;BME280;2876;51.738;10.050;2023-11-18T21:49:27;98999.44;;;5.81;100.00
5703;BME280;2876;51.738;10.050;2023-11-18T21:55:30;98995.16;;;5.72;100.00
5703;BME280;2876;51.738;10.050;2023-11-18T22:01:32;98994.72;;;5.68;100.00
5703;BME280;2876;51.738;10.050;2023-11-18T22:07:35;98971.94;;;5.89;100.00
5703;BME280;2876;51.738;10.050;2023-11-18T22:13:38;98972.75;;;5.89;100.00
5703;BME280;2876;51.738;10.050;2023-11-18T22:19:40;98951.28;;;5.68;100.00
5703;BME280;2876;51.738;10.050;2023-11-18T22:25:46;98941.03;;;5.65;100.00
5703;BME280;2876;51.738;10.050;2023-11-18T22:31:52;98922.44;;;5.79;100.00
5703;BME280;2876;51.738;10.050;2023-11-18T22:37:54;98918.97;;;5.79;100.00
5703;BME280;2876;51.738;10.050;2023-11-18T22:43:58;98918.72;;;5.89;100.00
5703;BME280;2876;51.738;10.050;2023-11-18T22:50:00;98931.41;;;5.64;100.00
5703;BME280;2876;51.738;10.050;2023-11-18T22:56:06;98919.59;;;5.81;100.00
5703;BME280;2876;51.738;10.050;2023-11-18T23:02:09;98912.16;;;5.76;100.00
5703;BME280;2876;51.738;10.050;2023-11-18T23:08:16;98890.56;;;5.94;100.00
5703;BME280;2876;51.738;10.050;2023-11-18T23:14:24;98886.84;;;5.80;100.00
5703;BME280;2876;51.738;10.050;2023-11-18T23:20:26;98870.06;;;5.80;100.00
5703;BME280;2876;51.738;10.050;2023-11-18T23:26:28;98852.84;;;5.91;100.00
5703;BME280;2876;51.738;10.050;2023-11-18T23:32:31;98854.75;;;5.82;100.00
5703;BME280;2876;51.738;10.050;2023-11-18T23:38:34;98817.34;;;6.13;100.00
5703;BME280;2876;51.738;10.050;2023-11-18T23:44:36;98813.22;;;6.10;100.00
5703;BME280;2876;51.738;10.050;2023-11-18T23:50:38;98804.50;;;6.02;100.00
5703;BME280;2876;51.738;10.050;2023-11-18T23:56:42;98820.56;;;6.08;100.00
